createdAt,value
2018-04-12T00:01:16.462Z,35.70
2018-04-12T00:03:43.854Z,37.00
2018-04-12T00:06:11.249Z,35.10
2018-04-12T00:08:38.654Z,35.50
2018-04-12T00:11:06.049Z,36.10
2018-04-12T00:13:33.534Z,36.17
2018-04-12T00:16:00.958Z,34.37
2018-04-12T00:18:28.357Z,34.97
2018-04-12T00:20:55.756Z,33.27
2018-04-12T00:23:23.162Z,34.80
2018-04-12T00:25:50.561Z,31.40
2018-04-12T00:28:17.957Z,34.40
2018-04-12T00:30:45.350Z,33.73
2018-04-12T00:33:12.779Z,35.90
2018-04-12T00:35:40.165Z,34.90
2018-04-12T00:38:07.561Z,33.17
2018-04-12T00:40:34.954Z,29.93
2018-04-12T00:43:02.345Z,33.57
2018-04-12T00:45:30.265Z,36.40
2018-04-12T00:47:57.661Z,36.33
2018-04-12T00:50:25.053Z,38.77
2018-04-12T00:52:52.475Z,35.97
2018-04-12T00:55:19.880Z,39.10
2018-04-12T00:57:47.270Z,30.57
2018-04-12T01:00:14.716Z,35.87
2018-04-12T01:02:42.174Z,32.10
2018-04-12T01:05:09.633Z,30.37
2018-04-12T01:07:37.032Z,31.93
2018-04-12T01:10:04.417Z,35.50
2018-04-12T01:12:31.897Z,33.37
2018-04-12T01:14:59.303Z,34.93
2018-04-12T01:17:26.694Z,32.23
2018-04-12T01:19:54.090Z,32.53
2018-04-12T01:22:21.494Z,30.93
2018-04-12T01:24:48.889Z,31.23
2018-04-12T01:27:16.281Z,28.90
2018-04-12T01:29:43.689Z,31.63
2018-04-12T01:32:11.073Z,27.17
2018-04-12T01:34:38.550Z,29.00
2018-04-12T01:37:06.008Z,29.97
2018-04-12T01:39:33.400Z,28.10
2018-04-12T01:42:00.816Z,27.97
2018-04-12T01:44:28.216Z,27.57
2018-04-12T01:46:55.605Z,30.97
2018-04-12T01:49:22.997Z,30.43
2018-04-12T01:51:50.493Z,29.50
2018-04-12T02:05:40.764Z,27.10
2018-04-12T02:08:08.221Z,27.03
2018-04-12T02:10:35.694Z,24.70
2018-04-12T02:13:03.077Z,24.63
2018-04-12T02:15:30.474Z,26.33
2018-04-12T02:17:57.893Z,25.40
2018-04-12T02:20:25.286Z,25.73
2018-04-12T02:22:52.697Z,25.77
2018-04-12T02:25:20.085Z,22.77
2018-04-12T02:27:47.573Z,22.90
2018-04-12T02:30:14.981Z,22.30
2018-04-12T02:32:42.361Z,22.90
2018-04-12T02:35:09.761Z,18.33
2018-04-12T02:37:37.141Z,21.23
2018-04-12T02:40:04.541Z,19.93
2018-04-12T02:42:31.942Z,19.43
2018-04-12T02:44:59.337Z,21.43
2018-04-12T02:47:26.813Z,21.53
2018-04-12T02:49:54.218Z,22.20
2018-04-12T02:52:21.612Z,21.40
2018-04-12T02:54:49.010Z,21.13
2018-04-12T02:57:16.400Z,18.57
2018-04-12T02:59:43.889Z,19.17
2018-04-12T03:02:11.288Z,19.63
2018-04-12T03:04:39.619Z,19.37
2018-04-12T03:07:07.077Z,19.53
2018-04-12T03:09:34.475Z,18.70
2018-04-12T03:12:01.896Z,17.37
2018-04-12T03:14:29.316Z,17.93
2018-04-12T03:16:56.801Z,18.27
2018-04-12T03:19:24.197Z,18.70
2018-04-12T03:21:51.615Z,20.77
2018-04-12T03:24:19.065Z,19.23
2018-04-12T03:26:46.453Z,17.33
2018-04-12T03:29:13.850Z,19.93
2018-04-12T03:31:41.232Z,20.20
2018-04-12T03:34:08.622Z,19.07
2018-04-12T03:36:36.008Z,21.03
2018-04-12T03:39:03.401Z,20.30
2018-04-12T03:41:30.781Z,19.87
2018-04-12T03:43:58.177Z,22.40
2018-04-12T03:46:25.567Z,23.70
2018-04-12T03:48:53.026Z,21.40
2018-04-12T03:51:20.417Z,22.73
2018-04-12T03:53:47.812Z,21.30
2018-04-12T03:56:15.198Z,22.50
2018-04-12T03:58:42.612Z,21.77
2018-04-12T04:01:09.993Z,23.70
2018-04-12T04:03:37.391Z,24.77
2018-04-12T04:06:04.825Z,23.23
2018-04-12T04:08:32.213Z,24.17
2018-04-12T04:10:59.596Z,25.60
2018-04-12T04:13:26.991Z,24.13
2018-04-12T04:16:06.425Z,26.10
2018-04-12T04:18:45.690Z,27.20
2018-04-12T04:21:14.656Z,26.70
2018-04-12T04:23:42.048Z,23.00
2018-04-12T04:26:09.442Z,26.33
2018-04-12T04:28:36.841Z,25.63
2018-04-12T04:31:04.237Z,26.27
2018-04-12T04:33:31.696Z,27.40
2018-04-12T04:35:59.104Z,26.83
2018-04-12T04:38:26.477Z,27.17
2018-04-12T04:40:53.957Z,27.90
2018-04-12T04:43:21.348Z,28.00
2018-04-12T04:45:48.769Z,28.70
2018-04-12T04:48:16.224Z,27.93
2018-04-12T04:50:43.574Z,28.33
2018-04-12T04:53:10.953Z,29.27
2018-04-12T04:55:38.365Z,33.20
2018-04-12T04:58:05.755Z,31.23
2018-04-12T05:00:33.152Z,28.37
2018-04-12T05:03:00.532Z,30.77
2018-04-12T05:05:27.925Z,31.13
2018-04-12T05:07:55.312Z,31.73
2018-04-12T05:10:22.706Z,31.50
2018-04-12T05:12:50.095Z,32.83
2018-04-12T05:15:17.513Z,30.40
2018-04-12T05:17:44.893Z,31.90
2018-04-12T05:20:12.361Z,31.40
2018-04-12T05:22:39.755Z,32.57
2018-04-12T05:25:07.160Z,30.47
2018-04-12T05:27:34.625Z,30.30
2018-04-12T05:30:02.037Z,31.73
2018-04-12T05:32:29.425Z,35.10
2018-04-12T05:34:56.882Z,31.60
2018-04-12T05:37:24.257Z,32.03
2018-04-12T05:39:51.720Z,31.70
2018-04-12T05:42:19.088Z,30.47
2018-04-12T05:44:46.509Z,31.63
2018-04-12T05:47:13.898Z,30.77
2018-04-12T05:49:41.308Z,30.83
2018-04-12T05:52:08.681Z,32.40
2018-04-12T05:54:36.134Z,33.97
2018-04-12T05:57:03.606Z,30.17
2018-04-12T05:59:31.001Z,29.33
2018-04-12T06:01:58.393Z,30.43
2018-04-12T06:04:25.791Z,33.07
2018-04-12T06:06:53.213Z,34.33
2018-04-12T06:09:20.604Z,32.30
2018-04-12T06:11:47.995Z,32.33
2018-04-12T06:14:15.374Z,31.90
2018-04-12T06:16:42.838Z,31.40
2018-04-12T06:19:10.229Z,33.80
2018-04-12T06:21:37.664Z,32.10
2018-04-12T06:24:05.049Z,28.37
2018-04-12T06:26:32.462Z,33.27
2018-04-12T06:28:59.857Z,30.17
2018-04-12T06:31:27.252Z,32.20
2018-04-12T06:33:54.740Z,33.17
2018-04-12T06:36:22.122Z,34.80
2018-04-12T06:38:49.509Z,32.90
2018-04-12T06:41:16.936Z,27.63
2018-04-12T06:43:44.321Z,29.40
2018-04-12T06:46:11.718Z,31.47
2018-04-12T06:48:39.101Z,31.70
2018-04-12T06:51:06.504Z,32.60
2018-04-12T06:53:33.884Z,25.70
2018-04-12T06:56:01.285Z,34.00
2018-04-12T06:58:28.666Z,28.83
2018-04-12T07:00:56.828Z,27.65
2018-04-12T07:03:24.312Z,30.10
2018-04-12T07:05:51.797Z,32.97
2018-04-12T07:08:19.137Z,30.20
2018-04-12T07:10:46.534Z,31.70
2018-04-12T07:13:13.916Z,33.03
2018-04-12T07:15:41.308Z,32.20
2018-04-12T07:18:09.248Z,32.57
2018-04-12T07:20:36.641Z,32.90
2018-04-12T07:23:04.101Z,33.50
2018-04-12T07:25:31.496Z,29.73
2018-04-12T07:27:58.978Z,33.50
2018-04-12T07:30:26.370Z,34.30
2018-04-12T07:32:53.761Z,33.77
2018-04-12T07:35:21.152Z,32.47
2018-04-12T07:37:48.541Z,32.60
2018-04-12T07:40:15.932Z,33.27
2018-04-12T07:42:43.318Z,33.07
2018-04-12T07:45:10.760Z,34.23
2018-04-12T07:47:38.148Z,35.33
2018-04-12T07:50:05.559Z,31.60
2018-04-12T07:52:33.027Z,34.17
2018-04-12T07:55:00.476Z,34.63
2018-04-12T07:57:27.871Z,34.40
2018-04-12T07:59:55.266Z,31.60
2018-04-12T08:02:22.751Z,34.27
2018-04-12T08:04:50.137Z,34.83
2018-04-12T08:07:17.538Z,34.23
2018-04-12T08:09:44.917Z,36.20
2018-04-12T08:12:12.308Z,30.60
2018-04-12T08:14:39.697Z,36.90
2018-04-12T08:17:07.090Z,34.70
2018-04-12T08:19:34.479Z,31.67
2018-04-12T08:22:01.889Z,32.97
2018-04-12T08:24:29.277Z,30.30
2018-04-12T08:26:56.705Z,31.77
2018-04-12T08:29:24.089Z,32.17
2018-04-12T08:31:51.508Z,34.17
2018-04-12T08:34:18.893Z,32.43
2018-04-12T08:36:46.350Z,31.73
2018-04-12T08:39:13.734Z,30.00
2018-04-12T08:41:41.137Z,31.63
2018-04-12T08:44:08.597Z,30.17
2018-04-12T08:46:35.994Z,32.67
2018-04-12T08:49:03.378Z,33.13
2018-04-12T08:51:30.779Z,32.73
2018-04-12T08:53:58.213Z,30.03
2018-04-12T08:56:25.669Z,29.90
2018-04-12T08:58:53.061Z,29.97
2018-04-12T09:01:20.485Z,31.70
2018-04-12T09:03:47.851Z,30.03
2018-04-12T09:06:15.245Z,30.30
2018-04-12T09:08:42.634Z,28.80
2018-04-12T09:11:10.026Z,28.73
2018-04-12T09:13:37.408Z,26.50
2018-04-12T09:16:04.915Z,28.63
2018-04-12T09:18:32.308Z,29.50
2018-04-12T09:20:59.710Z,28.67
2018-04-12T09:23:27.096Z,29.37
2018-04-12T09:25:54.502Z,28.90
2018-04-12T09:28:21.992Z,28.50
2018-04-12T09:30:50.281Z,29.57
2018-04-12T09:33:17.682Z,28.20
2018-04-12T09:35:45.216Z,27.30
2018-04-12T09:38:12.609Z,25.27
2018-04-12T09:40:40.097Z,28.17
2018-04-12T09:43:07.552Z,26.00
2018-04-12T09:45:34.957Z,27.63
2018-04-12T09:48:02.341Z,27.03
2018-04-12T09:50:29.743Z,27.50
2018-04-12T09:52:57.129Z,25.00
2018-04-12T09:55:24.526Z,27.07
2018-04-12T09:57:51.915Z,22.77
2018-04-12T10:00:25.025Z,24.70
2018-04-12T10:02:56.222Z,23.80
2018-04-12T10:05:29.568Z,23.10
2018-04-12T10:10:57.249Z,22.87
2018-04-12T10:13:24.669Z,21.23
2018-04-12T10:15:52.053Z,22.00
2018-04-12T10:18:19.443Z,20.93
2018-04-12T10:20:46.840Z,20.10
2018-04-12T10:23:14.226Z,21.90
2018-04-12T10:25:41.616Z,21.53
2018-04-12T10:28:09.009Z,21.30
2018-04-12T10:30:36.430Z,21.90
2018-04-12T10:33:03.900Z,19.87
2018-04-12T10:35:31.297Z,18.93
2018-04-12T10:37:58.706Z,19.47
2018-04-12T10:40:26.168Z,18.87
2018-04-12T10:42:54.121Z,17.37
2018-04-12T10:45:21.513Z,19.80
2018-04-12T10:47:48.917Z,20.17
2018-04-12T10:50:16.296Z,18.53
2018-04-12T10:52:43.760Z,17.17
2018-04-12T10:55:11.153Z,16.33
2018-04-12T10:57:38.553Z,18.03
2018-04-12T11:00:05.948Z,18.37
2018-04-12T11:02:33.347Z,18.60
2018-04-12T11:05:00.748Z,18.73
2018-04-12T11:07:28.137Z,17.43
2018-04-12T11:09:55.553Z,16.70
2018-04-12T11:12:22.973Z,18.70
2018-04-12T11:14:50.369Z,17.60
2018-04-12T11:17:17.760Z,17.47
2018-04-12T11:19:45.153Z,17.90
2018-04-12T11:22:12.553Z,18.47
2018-04-12T11:24:39.959Z,18.10
2018-04-12T11:27:07.458Z,18.37
2018-04-12T11:29:34.914Z,18.43
2018-04-12T11:32:02.301Z,16.90
2018-04-12T11:34:29.765Z,19.73
2018-04-12T11:36:57.146Z,18.57
2018-04-12T11:39:24.521Z,19.77
2018-04-12T11:41:51.922Z,18.63
2018-04-12T11:44:19.321Z,19.67
2018-04-12T11:46:46.712Z,20.53
2018-04-12T11:49:14.107Z,17.67
2018-04-12T11:51:41.503Z,19.40
2018-04-12T11:54:08.893Z,18.63
2018-04-12T11:56:36.315Z,18.37
2018-04-12T11:59:03.696Z,19.23
2018-04-12T12:01:31.093Z,19.77
2018-04-12T12:03:58.496Z,20.10
2018-04-12T12:06:25.905Z,19.37
2018-04-12T12:08:53.362Z,20.53
2018-04-12T12:11:20.752Z,19.00
2018-04-12T12:13:48.153Z,20.03
2018-04-12T12:16:15.544Z,19.10
2018-04-12T12:18:42.932Z,19.80
2018-04-12T12:21:10.336Z,19.73
2018-04-12T12:23:37.771Z,19.17
2018-04-12T12:26:05.121Z,18.30
2018-04-12T12:28:32.571Z,19.20
2018-04-12T12:30:59.959Z,19.03
2018-04-12T12:33:27.344Z,19.03
2018-04-12T12:35:54.738Z,19.03
2018-04-12T12:38:22.136Z,19.03
2018-04-12T12:40:49.611Z,19.17
2018-04-12T12:43:16.990Z,19.20
2018-04-12T12:45:44.405Z,19.67
2018-04-12T12:48:11.802Z,19.33
2018-04-12T12:50:39.211Z,18.80
2018-04-12T12:53:06.615Z,19.40
2018-04-12T12:55:34.028Z,18.03
2018-04-12T12:58:01.503Z,19.10
2018-04-12T13:00:28.971Z,18.53
2018-04-12T13:02:56.357Z,18.20
2018-04-12T13:05:23.741Z,18.90
2018-04-12T13:07:51.161Z,20.40
2018-04-12T13:10:18.616Z,19.73
2018-04-12T13:12:46.012Z,17.40
2018-04-12T13:15:13.396Z,17.87
2018-04-12T13:17:40.801Z,18.67
2018-04-12T13:20:08.210Z,19.80
2018-04-12T13:22:35.597Z,18.17
2018-04-12T13:25:03.047Z,18.30
2018-04-12T13:27:30.388Z,17.73
2018-04-12T13:29:57.785Z,17.97
2018-04-12T13:32:25.193Z,17.67
2018-04-12T13:34:52.673Z,17.00
2018-04-12T13:37:20.132Z,16.70
2018-04-12T13:39:47.520Z,18.80
2018-04-12T13:42:14.924Z,19.20
2018-04-12T13:44:42.321Z,17.70
2018-04-12T13:47:09.761Z,18.00
2018-04-12T13:49:37.152Z,16.93
2018-04-12T13:52:04.557Z,17.03
2018-04-12T13:54:31.948Z,19.40
2018-04-12T13:56:59.353Z,18.03
2018-04-12T13:59:26.744Z,18.87
2018-04-12T14:01:54.142Z,18.27
2018-04-12T14:04:21.539Z,16.70
2018-04-12T14:06:48.929Z,19.00
2018-04-12T14:09:16.361Z,17.47
2018-04-12T14:11:43.821Z,20.00
2018-04-12T14:14:11.280Z,18.50
2018-04-12T14:16:38.669Z,20.20
2018-04-12T14:19:06.057Z,18.70
2018-04-12T14:21:33.550Z,17.83
2018-04-12T14:24:00.941Z,17.30
2018-04-12T14:26:28.329Z,19.27
2018-04-12T14:28:55.827Z,17.90
2018-04-12T14:31:23.208Z,17.33
2018-04-12T14:33:50.609Z,17.00
2018-04-12T14:36:18.135Z,16.40
2018-04-12T14:38:45.501Z,17.27
2018-04-12T14:41:12.899Z,16.30
2018-04-12T14:43:40.355Z,16.03
2018-04-12T14:46:07.742Z,16.03
2018-04-12T14:48:35.137Z,15.30
2018-04-12T14:51:02.531Z,16.53
2018-04-12T14:53:30.000Z,16.53
2018-04-12T14:55:57.362Z,16.30
2018-04-12T14:58:24.789Z,16.33
2018-04-12T15:00:52.190Z,15.23
2018-04-12T15:03:19.586Z,15.83
2018-04-12T15:05:47.062Z,15.13
2018-04-12T15:08:14.563Z,15.27
2018-04-12T15:10:42.043Z,15.60
2018-04-12T15:13:09.441Z,16.27
2018-04-12T15:15:36.889Z,16.90
2018-04-12T15:18:04.349Z,16.00
2018-04-12T15:20:31.742Z,16.83
2018-04-12T15:22:59.132Z,15.87
2018-04-12T15:25:26.526Z,17.13
2018-04-12T15:27:53.925Z,17.70
2018-04-12T15:30:21.357Z,17.70
2018-04-12T15:32:48.752Z,16.70
2018-04-12T15:35:16.152Z,16.30
2018-04-12T15:37:43.554Z,18.67
2018-04-12T15:40:10.949Z,16.20
2018-04-12T15:42:38.343Z,17.90
2018-04-12T15:45:05.773Z,17.53
2018-04-12T15:47:33.181Z,17.70
2018-04-12T15:50:00.568Z,19.93
2018-04-12T15:52:27.972Z,20.47
2018-04-12T15:54:55.419Z,19.97
2018-04-12T15:57:22.849Z,19.40
2018-04-12T15:59:50.309Z,19.63
2018-04-12T16:02:17.705Z,18.80
2018-04-12T16:04:45.102Z,18.47
2018-04-12T16:07:12.526Z,15.70
2018-04-12T16:09:39.925Z,15.37
2018-04-12T16:12:07.397Z,15.10
2018-04-12T16:14:34.857Z,15.67
2018-04-12T16:17:02.233Z,15.47
2018-04-12T16:19:29.629Z,14.80
2018-04-12T16:21:57.122Z,14.37
2018-04-12T16:24:24.517Z,14.57
2018-04-12T16:26:51.958Z,14.20
2018-04-12T16:29:19.357Z,15.23
2018-04-12T16:31:46.845Z,14.23
2018-04-12T16:34:14.625Z,14.13
2018-04-12T16:36:42.160Z,15.10
2018-04-12T16:39:10.504Z,12.73
2018-04-12T16:41:37.900Z,14.47
2018-04-12T16:44:05.301Z,13.60
2018-04-12T16:46:32.693Z,13.17
2018-04-12T16:49:00.120Z,13.03
2018-04-12T16:51:27.507Z,12.73
2018-04-12T16:53:54.903Z,13.40
2018-04-12T16:56:22.300Z,12.73
2018-04-12T16:58:49.808Z,12.10
2018-04-12T17:01:17.186Z,13.10
2018-04-12T17:03:44.658Z,13.07
2018-04-12T17:06:12.050Z,12.40
2018-04-12T17:08:39.435Z,13.70
2018-04-12T17:11:06.824Z,13.27
2018-04-12T17:13:34.222Z,12.73
2018-04-12T17:16:01.638Z,13.40
2018-04-12T17:18:29.153Z,14.00
2018-04-12T17:20:56.596Z,12.93
2018-04-12T17:23:23.984Z,12.63
2018-04-12T17:25:51.381Z,12.67
2018-04-12T17:28:18.776Z,14.00
2018-04-12T17:30:46.177Z,13.10
2018-04-12T17:33:13.677Z,13.97
2018-04-12T17:35:41.072Z,15.20
2018-04-12T17:38:08.465Z,13.80
2018-04-12T17:40:35.870Z,13.97
2018-04-12T17:43:03.253Z,13.97
2018-04-12T17:45:30.653Z,14.23
2018-04-12T17:47:58.113Z,13.17
2018-04-12T17:50:25.509Z,12.80
2018-04-12T17:52:52.924Z,14.00
2018-04-12T17:55:20.385Z,13.03
2018-04-12T17:57:47.841Z,14.23
2018-04-12T18:00:15.247Z,14.80
2018-04-12T18:02:42.649Z,14.97
2018-04-12T18:05:10.057Z,14.57
2018-04-12T18:07:37.464Z,13.60
2018-04-12T18:10:04.868Z,14.50
2018-04-12T18:12:32.257Z,13.70
2018-04-12T18:14:59.782Z,14.00
2018-04-12T18:17:27.164Z,14.93
2018-04-12T18:19:54.579Z,13.47
2018-04-12T18:22:22.001Z,14.27
2018-04-12T18:24:50.084Z,14.73
2018-04-12T18:27:17.496Z,15.70
2018-04-12T18:29:44.895Z,14.50
2018-04-12T18:32:12.310Z,14.43
2018-04-12T18:34:39.814Z,13.93
2018-04-12T18:37:07.286Z,13.23
2018-04-12T18:39:34.704Z,13.93
2018-04-12T18:42:02.114Z,13.93
2018-04-12T18:44:29.500Z,13.63
2018-04-12T18:46:56.913Z,14.40
2018-04-12T18:49:24.377Z,14.97
2018-04-12T18:51:51.818Z,14.03
2018-04-12T18:54:19.290Z,13.90
2018-04-12T18:56:46.689Z,14.17
2018-04-12T18:59:14.123Z,13.90
2018-04-12T19:01:41.482Z,14.30
2018-04-12T19:04:08.909Z,14.37
2018-04-12T19:06:36.405Z,15.20
2018-04-12T19:09:03.938Z,15.03
2018-04-12T19:11:31.324Z,15.17
2018-04-12T19:13:59.104Z,14.47
2018-04-12T19:16:26.637Z,15.43
2018-04-12T19:18:54.098Z,15.00
2018-04-12T19:21:22.071Z,15.40
2018-04-12T19:23:49.505Z,15.20
2018-04-12T19:26:16.885Z,16.10
2018-04-12T19:28:44.337Z,16.80
2018-04-12T19:31:11.773Z,14.13
2018-04-12T19:33:39.170Z,15.60
2018-04-12T19:36:06.605Z,15.87
2018-04-12T19:38:34.016Z,15.83
2018-04-12T19:41:01.424Z,15.30
2018-04-12T19:43:28.849Z,15.80
2018-04-12T19:45:56.297Z,15.80
2018-04-12T19:48:23.758Z,14.57
2018-04-12T19:50:51.153Z,14.33
2018-04-12T19:53:18.545Z,14.30
2018-04-12T19:55:45.954Z,14.23
2018-04-12T19:58:13.381Z,16.13
2018-04-12T20:00:40.771Z,15.47
2018-04-12T20:03:08.170Z,16.07
2018-04-12T20:05:35.610Z,14.90
2018-04-12T20:08:02.992Z,16.90
2018-04-12T20:10:30.413Z,16.27
2018-04-12T20:12:57.804Z,15.20
2018-04-12T20:15:25.278Z,16.70
2018-04-12T20:17:52.677Z,15.47
2018-04-12T20:20:20.963Z,15.27
2018-04-12T20:22:48.447Z,16.00
2018-04-12T20:25:15.881Z,15.77
2018-04-12T20:27:43.356Z,15.80
2018-04-12T20:30:10.785Z,15.67
2018-04-12T20:32:38.197Z,16.67
2018-04-12T20:35:05.627Z,16.53
2018-04-12T20:37:33.016Z,16.07
2018-04-12T20:40:00.404Z,15.93
2018-04-12T20:42:27.880Z,16.57
2018-04-12T20:44:55.279Z,14.97
2018-04-12T20:47:22.697Z,15.20
2018-04-12T20:49:50.094Z,17.30
2018-04-12T20:52:17.496Z,15.30
2018-04-12T20:54:44.890Z,16.80
2018-04-12T20:57:12.296Z,15.53
2018-04-12T20:59:40.368Z,15.43
2018-04-12T21:02:07.845Z,15.53
2018-04-12T21:04:35.236Z,15.00
2018-04-12T21:07:02.653Z,15.70
2018-04-12T21:09:30.048Z,15.00
2018-04-12T21:11:57.449Z,15.30
2018-04-12T21:14:24.899Z,15.13
2018-04-12T21:16:52.273Z,13.83
2018-04-12T21:19:19.657Z,16.00
2018-04-12T21:21:47.084Z,15.30
2018-04-12T21:24:14.467Z,15.63
2018-04-12T21:26:41.856Z,13.97
2018-04-12T21:29:09.245Z,15.20
2018-04-12T21:31:36.675Z,14.37
2018-04-12T21:34:04.060Z,14.77
2018-04-12T21:36:31.464Z,14.93
2018-04-12T21:38:58.914Z,15.60
2018-04-12T21:41:26.393Z,15.10
2018-04-12T21:43:53.801Z,15.20
2018-04-12T21:46:21.261Z,15.50
2018-04-12T21:48:48.653Z,15.40
2018-04-12T21:51:16.077Z,14.50
2018-04-12T21:53:43.537Z,14.40
2018-04-12T21:56:10.993Z,14.33
2018-04-12T21:58:38.388Z,14.63
2018-04-12T22:01:05.792Z,15.07
2018-04-12T22:03:33.181Z,14.90
2018-04-12T22:06:00.720Z,15.33
2018-04-12T22:08:28.112Z,14.30
2018-04-12T22:10:55.514Z,14.00
2018-04-12T22:13:22.908Z,14.47
2018-04-12T22:15:50.294Z,14.80
2018-04-12T22:18:17.704Z,13.77
2018-04-12T22:20:45.093Z,15.20
2018-04-12T22:23:12.500Z,15.40
2018-04-12T22:25:39.893Z,15.10
2018-04-12T22:28:07.289Z,13.57
2018-04-12T22:30:34.690Z,14.43
2018-04-12T22:33:02.126Z,15.87
2018-04-12T22:35:29.584Z,15.30
2018-04-12T22:37:56.976Z,14.80
2018-04-12T22:40:24.368Z,15.70
2018-04-12T22:42:51.768Z,15.30
2018-04-12T22:45:19.153Z,17.00
2018-04-12T22:47:46.561Z,17.00
2018-04-12T22:50:13.948Z,15.30
2018-04-12T22:52:41.340Z,15.30
2018-04-12T22:55:08.732Z,16.90
2018-04-12T22:57:36.128Z,16.33
2018-04-12T23:00:04.073Z,17.73
2018-04-12T23:02:31.521Z,17.07
2018-04-12T23:04:58.969Z,17.33
2018-04-12T23:07:26.945Z,19.07
2018-04-12T23:09:54.328Z,20.80
2018-04-12T23:12:21.724Z,20.23
2018-04-12T23:14:49.173Z,21.00
2018-04-12T23:17:16.579Z,20.07
2018-04-12T23:19:43.969Z,21.43
2018-04-12T23:22:11.364Z,20.73
2018-04-12T23:24:38.789Z,22.83
2018-04-12T23:38:29.986Z,24.80
2018-04-12T23:40:57.670Z,25.03
2018-04-12T23:43:25.098Z,25.23
2018-04-12T23:45:52.552Z,27.90
2018-04-12T23:48:19.963Z,28.93
2018-04-12T23:50:47.345Z,28.20
2018-04-12T23:53:14.749Z,28.20
2018-04-12T23:55:42.176Z,26.50
2018-04-12T23:58:09.577Z,26.30
